createdAt,value
2023-05-21T00:01:06.178Z,68.20
2023-05-21T00:04:00.728Z,68.69
2023-05-21T00:06:53.043Z,68.86
2023-05-21T00:09:31.323Z,68.75
2023-05-21T00:12:07.871Z,69.06
2023-05-21T00:14:47.599Z,68.85
2023-05-21T00:17:25.208Z,68.93
2023-05-21T00:20:04.884Z,69.12
2023-05-21T00:22:58.421Z,69.44
2023-05-21T00:25:33.686Z,68.79
2023-05-21T00:28:17.900Z,69.22
2023-05-21T00:30:56.727Z,69.48
2023-05-21T00:33:43.400Z,69.83
2023-05-21T00:36:26.374Z,69.71
2023-05-21T00:39:08.595Z,69.78
2023-05-21T00:41:49.484Z,70.23
2023-05-21T00:44:29.526Z,70.35
2023-05-21T00:47:24.548Z,71.20
2023-05-21T00:50:10.435Z,70.60
2023-05-21T00:52:51.201Z,71.31
2023-05-21T00:55:31.535Z,71.15
2023-05-21T00:58:11.063Z,71.48
2023-05-21T01:00:52.319Z,71.35
2023-05-21T01:03:28.995Z,71.79
2023-05-21T01:06:15.664Z,71.58
2023-05-21T01:09:00.249Z,71.79
2023-05-21T01:11:57.055Z,71.52
2023-05-21T01:14:35.864Z,71.66
2023-05-21T01:17:19.454Z,71.84
2023-05-21T01:19:57.189Z,71.20
2023-05-21T01:22:38.266Z,71.67
2023-05-21T01:25:23.418Z,71.66
2023-05-21T01:27:59.325Z,71.52
2023-05-21T01:30:41.745Z,71.73
2023-05-21T01:33:37.492Z,71.69
2023-05-21T01:36:20.547Z,72.12
2023-05-21T01:39:09.938Z,71.88
2023-05-21T01:42:04.453Z,71.60
2023-05-21T01:44:43.775Z,71.41
2023-05-21T01:47:34.955Z,70.87
2023-05-21T01:50:07.520Z,70.58
2023-05-21T01:53:03.351Z,70.84
2023-05-21T01:55:44.017Z,70.47
2023-05-21T01:58:26.056Z,71.06
2023-05-21T02:01:03.078Z,71.12
2023-05-21T02:03:43.414Z,70.39
2023-05-21T02:06:20.280Z,70.35
2023-05-21T02:08:54.407Z,70.31
2023-05-21T02:11:44.885Z,70.28
2023-05-21T02:14:34.100Z,70.72
2023-05-21T02:17:16.609Z,70.82
2023-05-21T02:20:10.454Z,70.82
2023-05-21T02:22:49.702Z,71.12
2023-05-21T02:25:28.816Z,71.25
2023-05-21T02:28:10.330Z,70.92
2023-05-21T02:30:45.253Z,70.70
2023-05-21T02:33:28.067Z,70.84
2023-05-21T02:36:04.559Z,70.79
2023-05-21T02:38:50.727Z,70.57
2023-05-21T02:41:36.967Z,70.97
2023-05-21T02:44:11.270Z,70.96
2023-05-21T02:46:58.424Z,71.33
2023-05-21T02:49:35.321Z,71.67
2023-05-21T02:52:13.956Z,71.31
2023-05-21T02:54:51.382Z,71.85
2023-05-21T02:57:27.124Z,71.84
2023-05-21T03:00:17.119Z,72.20
2023-05-21T03:03:11.250Z,72.96
2023-05-21T03:05:44.641Z,72.71
2023-05-21T03:08:24.612Z,72.84
2023-05-21T03:11:20.618Z,73.09
2023-05-21T03:14:06.825Z,73.54
2023-05-21T03:16:54.528Z,73.29
2023-05-21T03:19:52.184Z,74.16
2023-05-21T03:22:29.345Z,74.00
2023-05-21T03:25:11.138Z,74.10
2023-05-21T03:28:03.573Z,74.14
2023-05-21T03:30:58.141Z,73.97
2023-05-21T03:33:55.080Z,74.09
2023-05-21T03:36:57.067Z,74.51
2023-05-21T03:39:40.244Z,74.08
2023-05-21T03:42:24.997Z,74.65
2023-05-21T03:45:04.912Z,74.37
2023-05-21T03:48:02.191Z,74.39
2023-05-21T03:50:44.457Z,74.93
2023-05-21T03:53:34.903Z,75.00
2023-05-21T03:56:17.553Z,74.72
2023-05-21T03:58:58.255Z,74.76
2023-05-21T04:01:49.715Z,74.76
2023-05-21T04:04:29.321Z,74.99
2023-05-21T04:07:09.644Z,74.75
2023-05-21T04:09:54.692Z,74.39
2023-05-21T04:12:41.063Z,74.57
2023-05-21T04:15:29.602Z,74.68
2023-05-21T04:18:08.485Z,73.51
2023-05-21T04:20:53.157Z,73.05
2023-05-21T04:26:39.678Z,73.64
2023-05-21T04:29:25.168Z,73.48
2023-05-21T04:32:14.898Z,73.17
2023-05-21T04:34:59.948Z,73.18
2023-05-21T04:37:46.564Z,73.45
2023-05-21T04:40:28.767Z,73.69
2023-05-21T04:43:30.620Z,73.06
2023-05-21T04:46:13.034Z,73.07
2023-05-21T04:48:55.985Z,73.98
2023-05-21T04:51:42.845Z,74.02
2023-05-21T04:54:23.111Z,73.67
2023-05-21T04:57:21.028Z,74.56
2023-05-21T05:00:17.600Z,74.83
2023-05-21T05:02:59.253Z,74.89
2023-05-21T05:05:36.563Z,74.75
2023-05-21T05:08:15.794Z,74.98
2023-05-21T05:10:59.628Z,75.79
2023-05-21T05:13:37.695Z,75.78
2023-05-21T05:16:25.794Z,74.96
2023-05-21T05:19:01.656Z,74.43
2023-05-21T05:21:49.194Z,74.54
2023-05-21T05:24:32.203Z,74.86
2023-05-21T05:27:25.411Z,75.47
2023-05-21T05:30:13.694Z,75.45
2023-05-21T05:32:47.546Z,75.17
2023-05-21T05:35:30.802Z,74.78
2023-05-21T05:38:17.502Z,74.99
2023-05-21T05:40:58.626Z,73.91
2023-05-21T05:43:38.260Z,74.82
2023-05-21T05:46:21.310Z,75.12
2023-05-21T05:49:15.162Z,75.47
2023-05-21T05:52:05.875Z,74.60
2023-05-21T05:54:46.860Z,74.96
2023-05-21T05:57:23.934Z,74.27
2023-05-21T06:00:01.631Z,74.13
2023-05-21T06:02:54.820Z,74.16
2023-05-21T06:05:48.132Z,74.15
2023-05-21T06:08:24.963Z,74.97
2023-05-21T06:11:04.724Z,74.86
2023-05-21T06:13:36.023Z,75.00
2023-05-21T06:16:23.718Z,73.92
2023-05-21T06:19:08.866Z,73.59
2023-05-21T06:21:47.844Z,72.92
2023-05-21T06:24:31.387Z,73.40
2023-05-21T06:27:29.145Z,73.97
2023-05-21T06:30:43.521Z,73.16
2023-05-21T06:33:28.218Z,72.61
2023-05-21T06:36:07.224Z,72.69
2023-05-21T06:39:02.340Z,71.95
2023-05-21T06:41:36.893Z,72.32
2023-05-21T06:44:39.184Z,72.90
2023-05-21T06:47:43.799Z,71.49
2023-05-21T06:50:31.903Z,72.36
2023-05-21T06:53:16.520Z,72.82
2023-05-21T06:56:06.404Z,72.95
2023-05-21T06:59:16.275Z,72.47
2023-05-21T07:01:58.429Z,71.45
2023-05-21T07:04:45.625Z,71.14
2023-05-21T07:07:26.473Z,70.83
2023-05-21T07:10:06.010Z,71.34
2023-05-21T07:13:00.317Z,71.20
2023-05-21T07:15:46.791Z,70.84
2023-05-21T07:18:22.117Z,70.99
2023-05-21T07:21:19.497Z,70.64
2023-05-21T07:23:58.000Z,70.77
2023-05-21T07:26:36.637Z,70.29
2023-05-21T07:29:21.022Z,70.68
2023-05-21T07:32:06.953Z,69.14
2023-05-21T07:34:54.665Z,70.53
2023-05-21T07:37:50.199Z,68.48
2023-05-21T07:40:30.302Z,67.63
2023-05-21T07:43:23.818Z,67.88
2023-05-21T07:46:14.212Z,66.55
2023-05-21T07:49:01.904Z,64.91
2023-05-21T07:52:00.202Z,60.88
2023-05-21T07:54:38.748Z,57.15
2023-05-21T07:57:25.011Z,54.37
2023-05-21T08:00:16.668Z,53.33
2023-05-21T08:03:24.779Z,53.12
2023-05-21T08:06:14.881Z,50.92
2023-05-21T08:09:01.387Z,51.03
2023-05-21T08:11:42.775Z,52.04
2023-05-21T08:14:21.765Z,49.96
2023-05-21T08:16:59.014Z,47.00
2023-05-21T08:19:59.316Z,44.74
2023-05-21T08:22:32.310Z,46.15
2023-05-21T08:25:09.442Z,45.54
2023-05-21T08:28:00.670Z,44.05
2023-05-21T08:30:36.699Z,43.73
2023-05-21T08:33:12.179Z,42.87
2023-05-21T08:35:54.354Z,44.79
2023-05-21T08:38:52.280Z,42.74
2023-05-21T08:42:01.262Z,41.33
2023-05-21T08:45:04.289Z,43.27
2023-05-21T08:47:54.455Z,42.38
2023-05-21T08:50:33.575Z,42.11
2023-05-21T08:53:35.794Z,42.59
2023-05-21T08:56:15.984Z,42.85
2023-05-21T08:59:18.513Z,41.52
2023-05-21T09:02:03.298Z,44.05
2023-05-21T09:04:56.485Z,41.21
2023-05-21T09:10:49.660Z,42.05
2023-05-21T09:13:45.814Z,41.03
2023-05-21T09:16:36.265Z,40.47
2023-05-21T09:19:20.260Z,41.38
2023-05-21T09:22:08.780Z,40.95
2023-05-21T09:24:48.382Z,41.71
2023-05-21T09:27:31.836Z,39.66
2023-05-21T09:30:12.565Z,41.11
2023-05-21T09:33:00.430Z,40.76
2023-05-21T09:35:43.644Z,39.26
2023-05-21T09:38:19.971Z,39.60
2023-05-21T09:41:05.355Z,40.45
2023-05-21T09:43:59.854Z,40.85
2023-05-21T09:46:36.416Z,40.17
2023-05-21T09:49:33.841Z,40.88
2023-05-21T09:52:13.961Z,40.47
2023-05-21T09:54:56.902Z,40.57
2023-05-21T09:57:33.694Z,40.10
2023-05-21T10:00:32.199Z,40.76
2023-05-21T10:03:11.284Z,39.41
2023-05-21T10:05:49.667Z,40.58
2023-05-21T10:08:29.597Z,39.22
2023-05-21T10:11:23.037Z,39.22
2023-05-21T10:14:05.701Z,38.59
2023-05-21T10:17:04.350Z,39.16
2023-05-21T10:19:40.485Z,36.82
2023-05-21T10:22:15.660Z,37.44
2023-05-21T10:25:14.225Z,37.07
2023-05-21T10:27:51.169Z,36.96
2023-05-21T10:30:26.880Z,36.45
2023-05-21T10:33:25.683Z,35.48
2023-05-21T10:36:11.840Z,35.97
2023-05-21T10:38:55.241Z,33.97
2023-05-21T10:41:37.516Z,35.21
2023-05-21T10:44:32.611Z,34.05
2023-05-21T10:47:49.899Z,34.28
2023-05-21T10:51:04.457Z,32.97
2023-05-21T10:54:00.028Z,32.72
2023-05-21T10:56:42.138Z,32.89
2023-05-21T10:59:32.044Z,31.41
2023-05-21T11:02:13.931Z,31.83
2023-05-21T11:05:20.309Z,33.42
2023-05-21T11:08:03.898Z,31.56
2023-05-21T11:10:59.392Z,31.05
2023-05-21T11:14:04.226Z,30.97
2023-05-21T11:16:43.739Z,31.10
2023-05-21T11:19:30.719Z,31.11
2023-05-21T11:22:18.106Z,31.53
2023-05-21T11:25:00.529Z,31.85
2023-05-21T11:27:56.537Z,32.33
2023-05-21T11:30:39.566Z,30.79
2023-05-21T11:33:29.573Z,32.46
2023-05-21T11:36:16.761Z,32.30
2023-05-21T11:39:23.234Z,30.82
2023-05-21T11:42:23.087Z,31.11
2023-05-21T11:45:03.769Z,30.88
2023-05-21T11:47:47.417Z,29.76
2023-05-21T11:50:27.783Z,29.59
2023-05-21T11:53:07.478Z,29.86
2023-05-21T11:56:03.642Z,29.23
2023-05-21T11:58:54.226Z,30.18
2023-05-21T12:01:36.239Z,29.18
2023-05-21T12:04:21.981Z,29.01
2023-05-21T12:07:07.603Z,29.71
2023-05-21T12:09:57.764Z,29.60
2023-05-21T12:12:53.856Z,28.95
2023-05-21T12:15:44.144Z,29.05
2023-05-21T12:18:19.115Z,27.91
2023-05-21T12:21:01.944Z,26.99
2023-05-21T12:23:44.802Z,26.72
2023-05-21T12:26:28.999Z,28.45
2023-05-21T12:29:25.123Z,26.55
2023-05-21T12:32:10.945Z,27.25
2023-05-21T12:34:54.977Z,25.77
2023-05-21T12:37:31.690Z,25.02
2023-05-21T12:40:15.616Z,23.95
2023-05-21T12:43:04.936Z,24.18
2023-05-21T12:45:58.355Z,24.22
2023-05-21T12:48:47.144Z,23.65
2023-05-21T12:51:25.273Z,24.18
2023-05-21T12:54:02.576Z,24.60
2023-05-21T12:56:54.557Z,23.83
2023-05-21T12:59:31.567Z,24.41
2023-05-21T13:02:11.201Z,23.85
2023-05-21T13:05:03.414Z,23.10
2023-05-21T13:07:50.529Z,22.65
2023-05-21T13:10:24.125Z,23.01
2023-05-21T13:12:58.575Z,23.05
2023-05-21T13:15:34.600Z,22.82
2023-05-21T13:18:21.956Z,29.74
2023-05-21T13:20:59.871Z,31.29
2023-05-21T13:23:37.157Z,32.79
2023-05-21T13:26:18.164Z,32.56
2023-05-21T13:29:02.188Z,33.61
2023-05-21T13:31:45.183Z,31.22
2023-05-21T13:34:20.734Z,30.77
2023-05-21T13:37:09.484Z,31.84
2023-05-21T13:39:45.637Z,31.97
2023-05-21T13:42:26.272Z,31.40
2023-05-21T13:44:57.184Z,31.43
2023-05-21T13:47:37.467Z,30.97
2023-05-21T13:50:13.051Z,33.16
2023-05-21T13:52:54.112Z,31.40
2023-05-21T13:55:33.145Z,31.56
2023-05-21T13:58:16.994Z,29.54
2023-05-21T14:00:51.335Z,30.93
2023-05-21T14:03:24.606Z,28.44
2023-05-21T14:05:59.775Z,28.84
2023-05-21T14:08:38.211Z,29.67
2023-05-21T14:11:15.027Z,29.85
2023-05-21T14:13:49.915Z,30.75
2023-05-21T14:16:24.366Z,29.80
2023-05-21T14:19:01.420Z,29.35
2023-05-21T14:21:41.036Z,29.52
2023-05-21T14:24:23.577Z,28.70
2023-05-21T14:26:59.639Z,28.66
2023-05-21T14:29:38.332Z,29.27
2023-05-21T14:32:16.528Z,28.74
2023-05-21T14:34:57.952Z,28.23
2023-05-21T14:37:36.298Z,28.13
2023-05-21T14:40:27.551Z,29.52
2023-05-21T14:43:01.625Z,30.12
2023-05-21T14:45:36.018Z,29.82
2023-05-21T14:48:09.962Z,30.40
2023-05-21T14:50:48.913Z,29.99
2023-05-21T14:53:20.527Z,28.74
2023-05-21T14:55:54.356Z,29.46
2023-05-21T14:58:27.173Z,28.15
2023-05-21T15:01:04.863Z,28.45
2023-05-21T15:03:41.983Z,29.32
2023-05-21T15:06:18.898Z,29.12
2023-05-21T15:08:58.753Z,30.58
2023-05-21T15:11:51.036Z,30.73
2023-05-21T15:14:25.231Z,31.15
2023-05-21T15:17:14.228Z,31.54
2023-05-21T15:19:50.299Z,31.12
2023-05-21T15:22:33.001Z,31.93
2023-05-21T15:25:10.519Z,31.34
2023-05-21T15:27:45.854Z,32.43
2023-05-21T15:30:35.738Z,31.89
2023-05-21T15:33:27.058Z,32.09
2023-05-21T15:36:12.704Z,30.91
2023-05-21T15:38:57.286Z,31.06
2023-05-21T15:41:42.189Z,31.45
2023-05-21T15:44:33.579Z,31.00
2023-05-21T15:47:10.327Z,29.68
2023-05-21T15:49:44.003Z,30.46
2023-05-21T15:52:17.865Z,31.59
2023-05-21T15:55:00.133Z,32.72
2023-05-21T15:57:36.969Z,30.78
2023-05-21T16:00:23.703Z,30.62
2023-05-21T16:03:20.656Z,31.46
2023-05-21T16:06:09.840Z,32.10
2023-05-21T16:08:46.973Z,32.52
2023-05-21T16:11:22.218Z,32.74
2023-05-21T16:14:06.504Z,32.87
2023-05-21T16:16:42.432Z,33.52
2023-05-21T16:19:27.866Z,34.43
2023-05-21T16:22:20.665Z,37.22
2023-05-21T16:25:05.795Z,39.09
2023-05-21T16:27:40.927Z,39.56
2023-05-21T16:30:14.326Z,40.31
2023-05-21T16:32:49.746Z,42.10
2023-05-21T16:35:27.829Z,41.39
2023-05-21T16:37:58.113Z,42.37
2023-05-21T16:40:31.944Z,41.82
2023-05-21T16:43:11.416Z,42.00
2023-05-21T16:45:45.275Z,41.99
2023-05-21T16:48:26.464Z,41.80
2023-05-21T16:50:59.754Z,40.95
2023-05-21T16:53:35.149Z,40.48
2023-05-21T16:56:19.820Z,40.42
2023-05-21T16:58:56.572Z,40.91
2023-05-21T17:01:31.360Z,41.80
2023-05-21T17:04:41.651Z,41.47
2023-05-21T17:07:22.586Z,41.68
2023-05-21T17:09:58.102Z,42.85
2023-05-21T17:12:41.068Z,43.01
2023-05-21T17:15:27.834Z,42.25
2023-05-21T17:18:16.715Z,42.70
2023-05-21T17:21:01.091Z,42.90
2023-05-21T17:23:43.631Z,43.04
2023-05-21T17:26:23.192Z,43.06
2023-05-21T17:29:02.644Z,43.04
2023-05-21T17:31:38.187Z,43.56
2023-05-21T17:34:15.803Z,43.68
2023-05-21T17:36:50.391Z,43.50
2023-05-21T17:39:25.262Z,43.51
2023-05-21T17:42:10.394Z,43.81
2023-05-21T17:44:43.312Z,43.56
2023-05-21T17:47:28.385Z,43.56
2023-05-21T17:50:03.651Z,43.80
2023-05-21T17:52:53.486Z,43.24
2023-05-21T17:55:29.804Z,42.86
2023-05-21T17:58:00.353Z,43.25
2023-05-21T18:00:44.633Z,43.35
2023-05-21T18:03:28.973Z,43.66
2023-05-21T18:06:11.317Z,43.52
2023-05-21T18:08:53.508Z,43.63
2023-05-21T18:11:30.697Z,43.85
2023-05-21T18:14:06.809Z,43.83
2023-05-21T18:16:43.579Z,43.89
2023-05-21T18:19:22.807Z,44.15
2023-05-21T18:21:56.317Z,44.68
2023-05-21T18:24:53.360Z,43.87
2023-05-21T18:27:38.306Z,43.73
2023-05-21T18:30:22.684Z,43.80
2023-05-21T18:33:02.964Z,43.84
2023-05-21T18:35:38.687Z,44.36
2023-05-21T18:38:16.279Z,43.75
2023-05-21T18:41:10.008Z,43.86
2023-05-21T18:43:52.942Z,44.03
2023-05-21T18:46:25.614Z,43.74
2023-05-21T18:49:09.250Z,43.71
2023-05-21T18:51:56.297Z,44.20
2023-05-21T18:54:33.860Z,44.44
2023-05-21T18:57:16.011Z,44.58
2023-05-21T18:59:57.039Z,44.60
2023-05-21T19:02:36.426Z,45.18
2023-05-21T19:05:20.617Z,45.12
2023-05-21T19:08:04.199Z,45.43
2023-05-21T19:10:40.483Z,45.97
2023-05-21T19:13:34.028Z,45.75
2023-05-21T19:16:11.110Z,46.07
2023-05-21T19:18:44.421Z,46.42
2023-05-21T19:21:21.766Z,46.35
2023-05-21T19:24:05.537Z,46.75
2023-05-21T19:26:57.524Z,46.73
2023-05-21T19:29:37.153Z,47.13
2023-05-21T19:32:15.330Z,47.83
2023-05-21T19:34:53.684Z,47.63
2023-05-21T19:37:33.003Z,48.32
2023-05-21T19:40:13.976Z,48.56
2023-05-21T19:42:52.807Z,48.34
2023-05-21T19:45:30.087Z,48.98
2023-05-21T19:48:02.354Z,49.16
2023-05-21T19:50:46.393Z,49.28
2023-05-21T19:53:22.391Z,49.55
2023-05-21T19:55:59.157Z,50.26
2023-05-21T19:58:31.199Z,50.44
2023-05-21T20:01:13.645Z,50.79
2023-05-21T20:03:52.712Z,50.55
2023-05-21T20:06:32.062Z,51.09
2023-05-21T20:09:14.533Z,51.45
2023-05-21T20:12:00.055Z,51.37
2023-05-21T20:14:36.440Z,51.16
2023-05-21T20:17:15.892Z,51.20
2023-05-21T20:19:48.313Z,51.32
2023-05-21T20:22:27.770Z,51.57
2023-05-21T20:25:13.362Z,51.35
2023-05-21T20:27:49.339Z,51.99
2023-05-21T20:30:24.880Z,51.97
2023-05-21T20:33:13.254Z,51.93
2023-05-21T20:35:49.483Z,52.62
2023-05-21T20:38:34.382Z,52.33
2023-05-21T20:41:38.255Z,52.97
2023-05-21T20:44:15.101Z,53.56
2023-05-21T20:46:58.485Z,53.89
2023-05-21T20:49:39.933Z,54.21
2023-05-21T20:52:14.825Z,53.88
2023-05-21T20:54:58.078Z,54.40
2023-05-21T20:57:29.402Z,55.16
2023-05-21T21:00:21.320Z,55.78
2023-05-21T21:03:03.676Z,55.82
2023-05-21T21:06:04.648Z,55.07
2023-05-21T21:08:44.889Z,55.58
2023-05-21T21:11:15.990Z,54.84
2023-05-21T21:13:56.678Z,55.51
2023-05-21T21:16:42.159Z,55.38
2023-05-21T21:19:22.984Z,55.53
2023-05-21T21:22:21.666Z,55.80
2023-05-21T21:25:01.646Z,55.85
2023-05-21T21:27:51.274Z,55.37
2023-05-21T21:30:28.716Z,55.51
2023-05-21T21:33:10.601Z,55.58
2023-05-21T21:35:49.247Z,56.25
2023-05-21T21:38:32.320Z,57.29
2023-05-21T21:41:21.579Z,57.92
2023-05-21T21:44:00.916Z,58.37
2023-05-21T21:46:51.276Z,59.05
2023-05-21T21:49:38.427Z,59.20
2023-05-21T21:52:12.795Z,59.73
2023-05-21T21:55:02.194Z,60.18
2023-05-21T21:57:36.047Z,59.90
2023-05-21T22:00:19.571Z,60.18
2023-05-21T22:02:52.952Z,59.93
2023-05-21T22:05:37.776Z,60.56
2023-05-21T22:08:21.253Z,60.46
2023-05-21T22:11:02.537Z,60.67
2023-05-21T22:13:45.603Z,60.64
2023-05-21T22:16:33.392Z,60.61
2023-05-21T22:19:12.567Z,60.88
2023-05-21T22:21:48.246Z,61.49
2023-05-21T22:27:20.636Z,61.39
2023-05-21T22:29:58.979Z,61.56
2023-05-21T22:32:36.158Z,61.71
2023-05-21T22:35:19.073Z,61.51
2023-05-21T22:37:52.077Z,61.42
2023-05-21T22:40:32.689Z,61.67
2023-05-21T22:43:09.554Z,61.82
2023-05-21T22:45:47.418Z,61.68
2023-05-21T22:48:22.761Z,61.70
2023-05-21T22:51:00.578Z,61.41
2023-05-21T22:53:50.165Z,61.59
2023-05-21T22:56:29.099Z,61.27
2023-05-21T22:59:16.188Z,61.58
2023-05-21T23:01:56.928Z,61.40
2023-05-21T23:04:44.298Z,61.39
2023-05-21T23:07:25.271Z,61.38
2023-05-21T23:10:09.082Z,61.15
2023-05-21T23:12:55.771Z,61.24
2023-05-21T23:15:36.961Z,61.27
2023-05-21T23:18:08.952Z,61.12
2023-05-21T23:20:41.953Z,60.74
2023-05-21T23:23:25.996Z,61.18
2023-05-21T23:26:09.641Z,61.19
2023-05-21T23:28:47.020Z,61.07
2023-05-21T23:31:27.928Z,61.25
2023-05-21T23:34:06.100Z,61.32
2023-05-21T23:36:49.120Z,61.68
2023-05-21T23:39:22.650Z,61.30
2023-05-21T23:42:06.247Z,61.38
2023-05-21T23:44:42.174Z,61.15
2023-05-21T23:47:28.702Z,61.70
2023-05-21T23:50:06.734Z,61.99
2023-05-21T23:52:52.769Z,62.36
2023-05-21T23:55:44.558Z,62.19
2023-05-21T23:58:33.505Z,61.89
